sensor_id;sensor_type;location;lat;lon;timestamp;temperature;humidity
32334;DHT22;18810;53.040;8.850;2023-04-01T00:00:56;10.30;99.90
32334;DHT22;18810;53.040;8.850;2023-04-01T00:03:23;10.30;99.90
32334;DHT22;18810;53.040;8.850;2023-04-01T00:05:49;10.20;99.90
32334;DHT22;18810;53.040;8.850;2023-04-01T00:08:16;10.20;99.90
32334;DHT22;18810;53.040;8.850;2023-04-01T00:10:42;10.20;99.90
32334;DHT22;18810;53.040;8.850;2023-04-01T00:13:08;10.20;99.90
32334;DHT22;18810;53.040;8.850;2023-04-01T00:15:38;10.20;99.90
32334;DHT22;18810;53.040;8.850;2023-04-01T00:18:05;10.10;99.90
32334;DHT22;18810;53.040;8.850;2023-04-01T00:20:31;10.20;99.90
32334;DHT22;18810;53.040;8.850;2023-04-01T00:22:57;10.10;99.90
32334;DHT22;18810;53.040;8.850;2023-04-01T00:25:23;10.20;99.90
32334;DHT22;18810;53.040;8.850;2023-04-01T00:27:49;10.30;99.90
32334;DHT22;18810;53.040;8.850;2023-04-01T00:30:15;10.20;99.90
32334;DHT22;18810;53.040;8.850;2023-04-01T00:32:41;10.20;99.90
32334;DHT22;18810;53.040;8.850;2023-04-01T00:35:07;10.20;99.90
32334;DHT22;18810;53.040;8.850;2023-04-01T00:37:36;10.30;99.90
32334;DHT22;18810;53.040;8.850;2023-04-01T00:40:03;10.30;99.90
32334;DHT22;18810;53.040;8.850;2023-04-01T00:42:29;10.20;99.90
32334;DHT22;18810;53.040;8.850;2023-04-01T00:44:55;10.20;99.90
32334;DHT22;18810;53.040;8.850;2023-04-01T00:47:22;10.10;99.90
32334;DHT22;18810;53.040;8.850;2023-04-01T00:49:51;10.10;99.90
32334;DHT22;18810;53.040;8.850;2023-04-01T00:52:20;10.10;99.90
32334;DHT22;18810;53.040;8.850;2023-04-01T00:54:49;10.10;99.90
32334;DHT22;18810;53.040;8.850;2023-04-01T00:57:35;10.10;99.90
32334;DHT22;18810;53.040;8.850;2023-04-01T01:00:05;10.20;99.90
32334;DHT22;18810;53.040;8.850;2023-04-01T01:02:33;10.20;99.90
32334;DHT22;18810;53.040;8.850;2023-04-01T01:05:00;10.20;99.90
32334;DHT22;18810;53.040;8.850;2023-04-01T01:12:39;10.20;99.90
32334;DHT22;18810;53.040;8.850;2023-04-01T01:23:51;10.20;99.90
32334;DHT22;18810;53.040;8.850;2023-04-01T01:26:34;10.20;99.90
32334;DHT22;18810;53.040;8.850;2023-04-01T01:32:15;10.20;99.90
32334;DHT22;18810;53.040;8.850;2023-04-01T01:37:27;10.10;99.90
32334;DHT22;18810;53.040;8.850;2023-04-01T01:39:59;10.10;99.90
32334;DHT22;18810;53.040;8.850;2023-04-01T01:42:27;10.20;99.90
32334;DHT22;18810;53.040;8.850;2023-04-01T01:44:58;8.40;99.90
32334;DHT22;18810;53.040;8.850;2023-04-01T01:47:26;10.10;99.90
32334;DHT22;18810;53.040;8.850;2023-04-01T01:49:53;10.10;99.90
32334;DHT22;18810;53.040;8.850;2023-04-01T01:52:22;10.10;99.90
32334;DHT22;18810;53.040;8.850;2023-04-01T01:54:53;10.10;99.90
32334;DHT22;18810;53.040;8.850;2023-04-01T01:57:26;10.20;99.90
32334;DHT22;18810;53.040;8.850;2023-04-01T01:59:58;10.20;99.90
32334;DHT22;18810;53.040;8.850;2023-04-01T02:02:25;10.30;99.90
32334;DHT22;18810;53.040;8.850;2023-04-01T02:04:52;8.70;99.90
32334;DHT22;18810;53.040;8.850;2023-04-01T02:07:24;10.30;99.90
32334;DHT22;18810;53.040;8.850;2023-04-01T02:09:51;10.30;99.90
32334;DHT22;18810;53.040;8.850;2023-04-01T02:12:19;10.20;99.90
32334;DHT22;18810;53.040;8.850;2023-04-01T02:15:09;10.30;99.90
32334;DHT22;18810;53.040;8.850;2023-04-01T02:17:42;10.20;99.90
32334;DHT22;18810;53.040;8.850;2023-04-01T02:20:19;10.10;99.90
32334;DHT22;18810;53.040;8.850;2023-04-01T02:22:54;10.10;99.90
32334;DHT22;18810;53.040;8.850;2023-04-01T02:25:24;10.20;99.90
32334;DHT22;18810;53.040;8.850;2023-04-01T02:27:51;10.40;99.90
32334;DHT22;18810;53.040;8.850;2023-04-01T02:30:18;10.10;99.90
32334;DHT22;18810;53.040;8.850;2023-04-01T02:32:45;10.20;99.90
32334;DHT22;18810;53.040;8.850;2023-04-01T02:35:14;10.20;99.90
32334;DHT22;18810;53.040;8.850;2023-04-01T02:37:42;10.20;99.90
32334;DHT22;18810;53.040;8.850;2023-04-01T02:40:10;10.10;99.90
32334;DHT22;18810;53.040;8.850;2023-04-01T02:42:37;10.20;99.90
32334;DHT22;18810;53.040;8.850;2023-04-01T02:45:03;10.20;99.90
32334;DHT22;18810;53.040;8.850;2023-04-01T02:47:29;10.10;99.90
32334;DHT22;18810;53.040;8.850;2023-04-01T02:49:55;10.10;99.90
32334;DHT22;18810;53.040;8.850;2023-04-01T02:52:24;10.20;99.90
32334;DHT22;18810;53.040;8.850;2023-04-01T02:54:50;10.00;99.90
32334;DHT22;18810;53.040;8.850;2023-04-01T02:57:16;10.10;99.90
32334;DHT22;18810;53.040;8.850;2023-04-01T02:59:42;10.00;99.90
32334;DHT22;18810;53.040;8.850;2023-04-01T03:02:07;10.00;99.90
32334;DHT22;18810;53.040;8.850;2023-04-01T03:04:33;10.00;99.90
32334;DHT22;18810;53.040;8.850;2023-04-01T03:06:59;10.10;99.90
32334;DHT22;18810;53.040;8.850;2023-04-01T03:09:25;10.10;99.90
32334;DHT22;18810;53.040;8.850;2023-04-01T03:11:50;10.00;99.90
32334;DHT22;18810;53.040;8.850;2023-04-01T03:14:16;10.00;99.90
32334;DHT22;18810;53.040;8.850;2023-04-01T03:16:42;10.00;99.90
32334;DHT22;18810;53.040;8.850;2023-04-01T03:19:08;10.10;99.90
32334;DHT22;18810;53.040;8.850;2023-04-01T03:21:34;10.00;99.90
32334;DHT22;18810;53.040;8.850;2023-04-01T03:23:59;10.10;99.90
32334;DHT22;18810;53.040;8.850;2023-04-01T03:26:25;10.10;99.90
32334;DHT22;18810;53.040;8.850;2023-04-01T03:28:53;10.10;99.90
32334;DHT22;18810;53.040;8.850;2023-04-01T03:31:18;10.10;99.90
32334;DHT22;18810;53.040;8.850;2023-04-01T03:33:45;10.10;99.90
32334;DHT22;18810;53.040;8.850;2023-04-01T03:36:11;10.10;99.90
32334;DHT22;18810;53.040;8.850;2023-04-01T03:38:41;10.20;99.90
32334;DHT22;18810;53.040;8.850;2023-04-01T03:41:12;10.10;99.90
32334;DHT22;18810;53.040;8.850;2023-04-01T03:43:38;10.10;99.90
32334;DHT22;18810;53.040;8.850;2023-04-01T03:46:03;10.00;99.90
32334;DHT22;18810;53.040;8.850;2023-04-01T03:48:29;9.90;99.90
32334;DHT22;18810;53.040;8.850;2023-04-01T03:50:55;9.90;99.90
32334;DHT22;18810;53.040;8.850;2023-04-01T03:53:20;10.00;99.90
32334;DHT22;18810;53.040;8.850;2023-04-01T03:55:46;10.00;99.90
32334;DHT22;18810;53.040;8.850;2023-04-01T03:58:12;10.10;99.90
32334;DHT22;18810;53.040;8.850;2023-04-01T04:00:38;10.10;99.90
32334;DHT22;18810;53.040;8.850;2023-04-01T04:03:03;10.00;99.90
32334;DHT22;18810;53.040;8.850;2023-04-01T04:05:31;10.00;99.90
32334;DHT22;18810;53.040;8.850;2023-04-01T04:07:56;10.00;99.90
32334;DHT22;18810;53.040;8.850;2023-04-01T04:10:22;10.00;99.90
32334;DHT22;18810;53.040;8.850;2023-04-01T04:12:50;10.00;99.90
32334;DHT22;18810;53.040;8.850;2023-04-01T04:15:16;10.00;99.90
32334;DHT22;18810;53.040;8.850;2023-04-01T04:17:43;10.00;99.90
32334;DHT22;18810;53.040;8.850;2023-04-01T04:20:09;10.00;99.90
32334;DHT22;18810;53.040;8.850;2023-04-01T04:22:35;9.90;99.90
32334;DHT22;18810;53.040;8.850;2023-04-01T04:25:01;9.90;99.90
32334;DHT22;18810;53.040;8.850;2023-04-01T04:27:26;9.90;99.90
32334;DHT22;18810;53.040;8.850;2023-04-01T04:29:52;10.00;99.90
32334;DHT22;18810;53.040;8.850;2023-04-01T04:32:18;10.00;99.90
32334;DHT22;18810;53.040;8.850;2023-04-01T04:34:43;10.00;99.90
32334;DHT22;18810;53.040;8.850;2023-04-01T04:37:09;9.90;99.90
32334;DHT22;18810;53.040;8.850;2023-04-01T04:39:35;9.90;99.90
32334;DHT22;18810;53.040;8.850;2023-04-01T04:42:01;9.90;99.90
32334;DHT22;18810;53.040;8.850;2023-04-01T04:44:29;10.00;99.90
32334;DHT22;18810;53.040;8.850;2023-04-01T04:46:55;10.00;99.90
32334;DHT22;18810;53.040;8.850;2023-04-01T04:49:21;10.00;99.90
32334;DHT22;18810;53.040;8.850;2023-04-01T04:51:46;9.90;99.90
32334;DHT22;18810;53.040;8.850;2023-04-01T04:54:12;9.90;99.90
32334;DHT22;18810;53.040;8.850;2023-04-01T04:56:38;9.90;99.90
32334;DHT22;18810;53.040;8.850;2023-04-01T04:59:03;10.00;99.90
32334;DHT22;18810;53.040;8.850;2023-04-01T05:01:29;10.00;99.90
32334;DHT22;18810;53.040;8.850;2023-04-01T05:03:55;9.90;99.90
32334;DHT22;18810;53.040;8.850;2023-04-01T05:06:21;9.90;99.90
32334;DHT22;18810;53.040;8.850;2023-04-01T05:08:47;9.90;99.90
32334;DHT22;18810;53.040;8.850;2023-04-01T05:11:16;9.90;99.90
32334;DHT22;18810;53.040;8.850;2023-04-01T05:13:42;9.80;99.90
32334;DHT22;18810;53.040;8.850;2023-04-01T05:16:14;9.90;99.90
32334;DHT22;18810;53.040;8.850;2023-04-01T05:18:40;9.90;99.90
32334;DHT22;18810;53.040;8.850;2023-04-01T05:21:08;9.90;99.90
32334;DHT22;18810;53.040;8.850;2023-04-01T05:23:34;10.00;99.90
32334;DHT22;18810;53.040;8.850;2023-04-01T05:26:18;9.90;99.90
32334;DHT22;18810;53.040;8.850;2023-04-01T05:28:46;10.00;99.90
32334;DHT22;18810;53.040;8.850;2023-04-01T05:31:12;10.00;99.90
32334;DHT22;18810;53.040;8.850;2023-04-01T05:33:38;10.00;99.90
32334;DHT22;18810;53.040;8.850;2023-04-01T05:36:22;10.00;99.90
32334;DHT22;18810;53.040;8.850;2023-04-01T05:38:47;10.00;99.90
32334;DHT22;18810;53.040;8.850;2023-04-01T05:41:14;9.90;99.90
32334;DHT22;18810;53.040;8.850;2023-04-01T05:43:41;10.00;99.90
32334;DHT22;18810;53.040;8.850;2023-04-01T05:46:07;9.90;99.90
32334;DHT22;18810;53.040;8.850;2023-04-01T05:48:34;9.90;99.90
32334;DHT22;18810;53.040;8.850;2023-04-01T05:51:01;9.90;99.90
32334;DHT22;18810;53.040;8.850;2023-04-01T05:53:27;9.90;99.90
32334;DHT22;18810;53.040;8.850;2023-04-01T05:55:52;9.90;99.90
32334;DHT22;18810;53.040;8.850;2023-04-01T05:58:18;9.90;99.90
32334;DHT22;18810;53.040;8.850;2023-04-01T06:00:44;10.00;99.90
32334;DHT22;18810;53.040;8.850;2023-04-01T06:03:10;10.00;99.90
32334;DHT22;18810;53.040;8.850;2023-04-01T06:05:44;10.00;99.90
32334;DHT22;18810;53.040;8.850;2023-04-01T06:08:13;10.00;99.90
32334;DHT22;18810;53.040;8.850;2023-04-01T06:11:07;10.10;99.90
32334;DHT22;18810;53.040;8.850;2023-04-01T06:16:41;10.10;99.90
32334;DHT22;18810;53.040;8.850;2023-04-01T06:29:58;10.00;99.90
32334;DHT22;18810;53.040;8.850;2023-04-01T06:32:49;10.10;99.90
32334;DHT22;18810;53.040;8.850;2023-04-01T06:35:29;10.10;99.90
32334;DHT22;18810;53.040;8.850;2023-04-01T06:40:42;10.20;99.90
32334;DHT22;18810;53.040;8.850;2023-04-01T06:43:27;10.20;99.90
32334;DHT22;18810;53.040;8.850;2023-04-01T06:54:07;10.30;99.90
32334;DHT22;18810;53.040;8.850;2023-04-01T06:56:37;10.30;99.90
32334;DHT22;18810;53.040;8.850;2023-04-01T06:59:20;10.30;99.90
32334;DHT22;18810;53.040;8.850;2023-04-01T07:01:57;10.40;99.90
32334;DHT22;18810;53.040;8.850;2023-04-01T07:04:37;10.50;99.90
32334;DHT22;18810;53.040;8.850;2023-04-01T07:09:34;10.60;99.90
32334;DHT22;18810;53.040;8.850;2023-04-01T07:12:10;10.60;99.90
32334;DHT22;18810;53.040;8.850;2023-04-01T07:14:40;10.50;99.90
32334;DHT22;18810;53.040;8.850;2023-04-01T07:22:54;10.70;99.90
32334;DHT22;18810;53.040;8.850;2023-04-01T07:25:29;10.70;99.90
32334;DHT22;18810;53.040;8.850;2023-04-01T07:28:05;10.70;99.90
32334;DHT22;18810;53.040;8.850;2023-04-01T07:41:08;10.80;99.90
32334;DHT22;18810;53.040;8.850;2023-04-01T07:49:05;10.70;99.90
32334;DHT22;18810;53.040;8.850;2023-04-01T08:02:28;11.30;99.90
32334;DHT22;18810;53.040;8.850;2023-04-01T08:10:20;11.70;99.90
32334;DHT22;18810;53.040;8.850;2023-04-01T08:21:02;11.70;99.90
32334;DHT22;18810;53.040;8.850;2023-04-01T08:23:30;11.80;99.90
32334;DHT22;18810;53.040;8.850;2023-04-01T08:28:48;11.80;99.90
32334;DHT22;18810;53.040;8.850;2023-04-01T08:31:29;11.80;99.90
32334;DHT22;18810;53.040;8.850;2023-04-01T08:33:56;11.90;99.90
32334;DHT22;18810;53.040;8.850;2023-04-01T08:36:36;12.20;99.90
32334;DHT22;18810;53.040;8.850;2023-04-01T08:41:45;12.30;99.90
32334;DHT22;18810;53.040;8.850;2023-04-01T08:47:09;12.50;99.90
32334;DHT22;18810;53.040;8.850;2023-04-01T08:52:46;12.20;99.90
32334;DHT22;18810;53.040;8.850;2023-04-01T08:55:36;12.10;99.90
32334;DHT22;18810;53.040;8.850;2023-04-01T09:14:45;13.00;99.90
32334;DHT22;18810;53.040;8.850;2023-04-01T09:27:46;13.70;99.90
32334;DHT22;18810;53.040;8.850;2023-04-01T09:33:15;14.00;99.90
32334;DHT22;18810;53.040;8.850;2023-04-01T09:55:03;13.90;99.90
32334;DHT22;18810;53.040;8.850;2023-04-01T10:00:39;14.60;99.90
32334;DHT22;18810;53.040;8.850;2023-04-01T11:26:04;11.30;99.90
32334;DHT22;18810;53.040;8.850;2023-04-01T11:28:50;11.20;99.90
32334;DHT22;18810;53.040;8.850;2023-04-01T11:34:36;11.10;99.90
32334;DHT22;18810;53.040;8.850;2023-04-01T11:48:40;11.20;99.90
32334;DHT22;18810;53.040;8.850;2023-04-01T11:59:29;11.30;99.90
32334;DHT22;18810;53.040;8.850;2023-04-01T12:02:28;11.40;99.90
32334;DHT22;18810;53.040;8.850;2023-04-01T12:05:13;11.30;99.90
32334;DHT22;18810;53.040;8.850;2023-04-01T12:10:26;11.60;99.90
32334;DHT22;18810;53.040;8.850;2023-04-01T12:15:37;11.70;99.90
32334;DHT22;18810;53.040;8.850;2023-04-01T12:21:25;11.80;99.90
32334;DHT22;18810;53.040;8.850;2023-04-01T12:40:49;10.90;99.90
32334;DHT22;18810;53.040;8.850;2023-04-01T12:43:26;10.70;99.90
32334;DHT22;18810;53.040;8.850;2023-04-01T12:46:24;10.70;99.90
32334;DHT22;18810;53.040;8.850;2023-04-01T12:49:15;10.80;99.90
32334;DHT22;18810;53.040;8.850;2023-04-01T13:22:21;10.80;99.90
32334;DHT22;18810;53.040;8.850;2023-04-01T13:25:03;10.70;99.90
32334;DHT22;18810;53.040;8.850;2023-04-01T13:27:39;10.80;99.90
32334;DHT22;18810;53.040;8.850;2023-04-01T13:35:52;11.00;99.90
32334;DHT22;18810;53.040;8.850;2023-04-01T13:47:06;10.20;99.90
32334;DHT22;18810;53.040;8.850;2023-04-01T13:53:05;10.10;99.90
32334;DHT22;18810;53.040;8.850;2023-04-01T13:55:38;10.30;99.90
32334;DHT22;18810;53.040;8.850;2023-04-01T14:03:50;10.00;99.90
32334;DHT22;18810;53.040;8.850;2023-04-01T14:20:39;9.70;99.90
32334;DHT22;18810;53.040;8.850;2023-04-01T14:32:12;9.50;99.90
32334;DHT22;18810;53.040;8.850;2023-04-01T14:34:15;9.40;99.90
32334;DHT22;18810;53.040;8.850;2023-04-01T14:36:50;9.20;99.90
32334;DHT22;18810;53.040;8.850;2023-04-01T14:50:08;9.30;99.90
32334;DHT22;18810;53.040;8.850;2023-04-01T14:52:40;9.20;99.90
32334;DHT22;18810;53.040;8.850;2023-04-01T14:58:20;8.80;99.90
32334;DHT22;18810;53.040;8.850;2023-04-01T15:03:28;9.00;99.90
32334;DHT22;18810;53.040;8.850;2023-04-01T15:17:58;8.90;99.90
32334;DHT22;18810;53.040;8.850;2023-04-01T15:26:00;8.60;99.90
32334;DHT22;18810;53.040;8.850;2023-04-01T15:28:39;8.50;99.90
32334;DHT22;18810;53.040;8.850;2023-04-01T15:31:17;8.50;99.90
32334;DHT22;18810;53.040;8.850;2023-04-01T15:44:46;8.10;99.90
32334;DHT22;18810;53.040;8.850;2023-04-01T15:56:27;8.00;99.90
32334;DHT22;18810;53.040;8.850;2023-04-01T16:01:43;7.00;99.90
32334;DHT22;18810;53.040;8.850;2023-04-01T16:23:47;7.40;99.90
32334;DHT22;18810;53.040;8.850;2023-04-01T16:29:27;7.50;99.90
32334;DHT22;18810;53.040;8.850;2023-04-01T16:35:04;7.50;99.90
32334;DHT22;18810;53.040;8.850;2023-04-01T16:37:43;7.50;99.90
32334;DHT22;18810;53.040;8.850;2023-04-01T16:46:34;7.30;99.90
32334;DHT22;18810;53.040;8.850;2023-04-01T16:49:24;7.30;99.90
32334;DHT22;18810;53.040;8.850;2023-04-01T16:59:58;7.10;99.90
32334;DHT22;18810;53.040;8.850;2023-04-01T17:02:35;7.20;99.90
32334;DHT22;18810;53.040;8.850;2023-04-01T17:05:11;7.20;99.90
32334;DHT22;18810;53.040;8.850;2023-04-01T17:13:34;6.80;99.90
32334;DHT22;18810;53.040;8.850;2023-04-01T17:16:14;6.80;99.90
32334;DHT22;18810;53.040;8.850;2023-04-01T17:35:22;6.80;99.90
32334;DHT22;18810;53.040;8.850;2023-04-01T17:43:55;6.40;99.90
32334;DHT22;18810;53.040;8.850;2023-04-01T17:47:25;6.30;99.90
32334;DHT22;18810;53.040;8.850;2023-04-01T17:52:28;6.30;99.90
32334;DHT22;18810;53.040;8.850;2023-04-01T17:58:32;6.30;99.90
32334;DHT22;18810;53.040;8.850;2023-04-01T18:04:03;6.40;99.90
32334;DHT22;18810;53.040;8.850;2023-04-01T18:09:42;6.20;99.90
32334;DHT22;18810;53.040;8.850;2023-04-01T18:12:44;6.10;99.90
32334;DHT22;18810;53.040;8.850;2023-04-01T18:18:10;6.20;99.90
32334;DHT22;18810;53.040;8.850;2023-04-01T18:20:47;6.30;99.90
32334;DHT22;18810;53.040;8.850;2023-04-01T18:23:36;6.30;99.90
32334;DHT22;18810;53.040;8.850;2023-04-01T18:26:33;6.40;99.90
32334;DHT22;18810;53.040;8.850;2023-04-01T18:29:11;6.50;99.90
32334;DHT22;18810;53.040;8.850;2023-04-01T18:31:42;6.30;99.90
32334;DHT22;18810;53.040;8.850;2023-04-01T18:37:15;6.30;99.90
32334;DHT22;18810;53.040;8.850;2023-04-01T18:43:05;6.30;99.90
32334;DHT22;18810;53.040;8.850;2023-04-01T18:45:37;6.20;99.90
32334;DHT22;18810;53.040;8.850;2023-04-01T18:48:41;6.10;99.90
32334;DHT22;18810;53.040;8.850;2023-04-01T18:51:34;6.00;99.90
32334;DHT22;18810;53.040;8.850;2023-04-01T18:54:31;6.00;99.90
32334;DHT22;18810;53.040;8.850;2023-04-01T18:59:42;5.90;99.90
32334;DHT22;18810;53.040;8.850;2023-04-01T19:05:19;6.20;99.90
32334;DHT22;18810;53.040;8.850;2023-04-01T19:07:48;6.00;99.90
32334;DHT22;18810;53.040;8.850;2023-04-01T19:10:21;6.00;99.90
32334;DHT22;18810;53.040;8.850;2023-04-01T19:18:47;5.90;99.90
32334;DHT22;18810;53.040;8.850;2023-04-01T19:24:00;5.90;99.90
32334;DHT22;18810;53.040;8.850;2023-04-01T19:26:40;5.80;99.90
32334;DHT22;18810;53.040;8.850;2023-04-01T19:31:59;5.80;99.90
32334;DHT22;18810;53.040;8.850;2023-04-01T19:34:55;5.80;99.90
32334;DHT22;18810;53.040;8.850;2023-04-01T19:37:32;5.80;99.90
32334;DHT22;18810;53.040;8.850;2023-04-01T19:43:03;5.60;99.90
32334;DHT22;18810;53.040;8.850;2023-04-01T19:56:23;5.60;99.90
32334;DHT22;18810;53.040;8.850;2023-04-01T20:01:44;5.70;99.90
32334;DHT22;18810;53.040;8.850;2023-04-01T20:04:19;5.70;99.90
32334;DHT22;18810;53.040;8.850;2023-04-01T20:14:58;5.60;99.90
32334;DHT22;18810;53.040;8.850;2023-04-01T20:17:46;5.60;99.90
32334;DHT22;18810;53.040;8.850;2023-04-01T20:27:51;5.80;99.90
32334;DHT22;18810;53.040;8.850;2023-04-01T20:35:41;5.90;99.90
32334;DHT22;18810;53.040;8.850;2023-04-01T20:43:55;5.80;99.90
32334;DHT22;18810;53.040;8.850;2023-04-01T21:00:31;5.20;99.90
32334;DHT22;18810;53.040;8.850;2023-04-01T21:05:59;5.20;99.90
32334;DHT22;18810;53.040;8.850;2023-04-01T21:08:35;5.10;99.90
32334;DHT22;18810;53.040;8.850;2023-04-01T21:11:33;5.00;99.90
32334;DHT22;18810;53.040;8.850;2023-04-01T21:17:29;5.00;99.90
32334;DHT22;18810;53.040;8.850;2023-04-01T21:28:29;5.30;99.90
32334;DHT22;18810;53.040;8.850;2023-04-01T21:31:22;5.20;99.90
32334;DHT22;18810;53.040;8.850;2023-04-01T21:37:04;5.20;99.90
32334;DHT22;18810;53.040;8.850;2023-04-01T21:39:53;3.70;99.90
32334;DHT22;18810;53.040;8.850;2023-04-01T22:00:09;5.00;99.90
32334;DHT22;18810;53.040;8.850;2023-04-01T22:05:39;5.00;99.90
32334;DHT22;18810;53.040;8.850;2023-04-01T22:13:48;4.90;99.90
32334;DHT22;18810;53.040;8.850;2023-04-01T22:16:27;4.70;99.90
32334;DHT22;18810;53.040;8.850;2023-04-01T22:19:15;4.70;99.90
32334;DHT22;18810;53.040;8.850;2023-04-01T22:22:01;4.60;99.90
32334;DHT22;18810;53.040;8.850;2023-04-01T22:27:48;4.60;99.90
32334;DHT22;18810;53.040;8.850;2023-04-01T22:38:21;4.40;99.90
32334;DHT22;18810;53.040;8.850;2023-04-01T22:41:01;4.30;99.90
32334;DHT22;18810;53.040;8.850;2023-04-01T22:43:40;4.60;99.90
32334;DHT22;18810;53.040;8.850;2023-04-01T22:46:24;4.10;99.90
32334;DHT22;18810;53.040;8.850;2023-04-01T22:48:57;3.90;99.90
32334;DHT22;18810;53.040;8.850;2023-04-01T22:54:48;3.90;99.90
32334;DHT22;18810;53.040;8.850;2023-04-01T22:57:56;3.80;99.90
32334;DHT22;18810;53.040;8.850;2023-04-01T23:00:27;3.80;99.90
32334;DHT22;18810;53.040;8.850;2023-04-01T23:03:17;3.80;99.90
32334;DHT22;18810;53.040;8.850;2023-04-01T23:05:55;3.80;99.90
32334;DHT22;18810;53.040;8.850;2023-04-01T23:35:57;3.50;99.90
32334;DHT22;18810;53.040;8.850;2023-04-01T23:38:33;3.50;99.90
32334;DHT22;18810;53.040;8.850;2023-04-01T23:43:36;3.30;99.90
32334;DHT22;18810;53.040;8.850;2023-04-01T23:46:04;3.20;99.90
32334;DHT22;18810;53.040;8.850;2023-04-01T23:51:27;3.10;99.90
32334;DHT22;18810;53.040;8.850;2023-04-01T23:54:01;3.20;99.90
32334;DHT22;18810;53.040;8.850;2023-04-01T23:56:48;3.50;99.90
32334;DHT22;18810;53.040;8.850;2023-04-01T23:59:18;3.10;99.90
